Time;durP1;ratioP1;P1;durP2;ratioP2;P2;SDS_P1;SDS_P2;PMS_P1;PMS_P2;Temp;Humidity;BMP_temperature;BMP_pressure;BME280_temperature;BME280_humidity;BME280_pressure;Samples;Min_cycle;Max_cycle;Signal;HPM_P1;HPM_P2
2023/02/27 00:00:02;;;;;;;2.17;1.33;;;;;;;-1.99;83.43;150864.56;5011740;28;20934;-77
2023/02/27 00:02:32;;;;;;;1.90;1.50;;;;;;;-2.01;83.60;150859.41;5022254;28;20489;-77
2023/02/27 00:04:59;;;;;;;2.70;1.30;;;;;;;-1.96;83.65;150872.25;5008843;28;20872;-77
2023/02/27 00:07:27;;;;;;;2.67;1.67;;;;;;;-2.02;83.42;150858.16;5010436;28;20538;-77
2023/02/27 00:09:54;;;;;;;2.00;1.80;;;;;;;-2.02;84.15;150856.88;5009999;28;20455;-76
2023/02/27 00:12:20;;;;;;;2.33;1.63;;;;;;;-1.92;83.76;150883.78;5020300;28;20479;-76
2023/02/27 00:14:47;;;;;;;2.13;1.63;;;;;;;-1.95;84.15;150876.09;5001739;28;20463;-77
2023/02/27 00:17:14;;;;;;;3.10;1.63;;;;;;;-1.98;84.33;150868.38;5010754;28;20488;-77
2023/02/27 00:19:42;;;;;;;1.93;1.33;;;;;;;-2.16;84.54;150822.28;5017430;28;20435;-77
2023/02/27 00:22:08;;;;;;;2.13;1.43;;;;;;;-1.98;84.49;150867.09;5010681;28;20453;-77
2023/02/27 00:24:35;;;;;;;2.17;1.57;;;;;;;-2.00;83.74;150863.28;5009659;28;20540;-77
2023/02/27 00:27:02;;;;;;;1.13;0.93;;;;;;;-2.06;84.32;150846.59;5025053;28;20450;-77
2023/02/27 00:29:29;;;;;;;1.40;1.30;;;;;;;-1.96;84.27;150872.25;5014895;28;20494;-77
2023/02/27 00:31:55;;;;;;;1.63;0.97;;;;;;;-2.02;83.85;150856.88;5024956;28;20458;-76
2023/02/27 00:34:22;;;;;;;2.57;1.53;;;;;;;-1.91;83.75;150886.31;5020873;28;20483;-77
2023/02/27 00:36:50;;;;;;;2.10;1.50;;;;;;;-1.93;84.04;150879.91;5008488;28;20514;-77
2023/02/27 00:39:17;;;;;;;2.17;1.60;;;;;;;-1.97;84.03;150869.69;5019480;28;20518;-77
2023/02/27 00:41:43;;;;;;;3.20;2.00;;;;;;;-1.94;83.93;150877.38;4988635;28;20971;-77
2023/02/27 00:44:10;;;;;;;1.57;1.40;;;;;;;-1.99;83.93;150864.56;5010354;28;20514;-77
2023/02/27 00:46:37;;;;;;;2.50;1.60;;;;;;;-1.97;83.51;150870.97;4991879;28;20457;-77
2023/02/27 00:49:06;;;;;;;2.40;1.63;;;;;;;-1.99;83.77;150865.84;5007167;28;20484;-77
2023/02/27 00:51:32;;;;;;;2.17;1.50;;;;;;;-2.08;84.63;150841.50;4992828;28;20795;-77
2023/02/27 00:54:00;;;;;;;2.00;1.50;;;;;;;-2.11;84.70;150833.81;5010199;28;20501;-77
2023/02/27 00:56:27;;;;;;;1.77;1.57;;;;;;;-2.12;83.97;150831.28;5013513;28;20499;-77
2023/02/27 00:58:54;;;;;;;1.90;1.50;;;;;;;-2.12;83.83;150831.28;5007249;28;20500;-77
2023/02/27 01:01:22;;;;;;;2.53;2.00;;;;;;;-2.19;84.42;150813.31;4987861;28;20456;-77
2023/02/27 01:03:49;;;;;;;2.03;1.70;;;;;;;-2.04;85.24;150853.00;5009945;28;20694;-77
2023/02/27 01:06:16;;;;;;;2.17;1.50;;;;;;;-2.21;84.90;150809.50;4999586;28;20443;-77
2023/02/27 01:08:43;;;;;;;3.40;1.30;;;;;;;-2.15;84.46;150823.59;5008857;28;20542;-76
2023/02/27 01:11:11;;;;;;;2.47;1.77;;;;;;;-2.09;85.00;150838.97;5006235;28;20480;-77
2023/02/27 01:13:38;;;;;;;1.73;1.33;;;;;;;-2.10;85.33;150836.38;5004918;28;20475;-77
2023/02/27 01:16:07;;;;;;;1.97;1.67;;;;;;;-2.09;85.08;150838.97;5007154;28;20509;-77
2023/02/27 01:18:33;;;;;;;2.20;1.43;;;;;;;-2.18;85.68;150817.19;5017548;28;20451;-76
2023/02/27 01:21:00;;;;;;;2.17;1.60;;;;;;;-2.19;85.76;150814.59;5011820;28;20950;-76
2023/02/27 01:23:27;;;;;;;1.77;1.53;;;;;;;-2.30;85.97;150785.19;5010063;28;20448;-76
2023/02/27 01:25:53;;;;;;;1.63;1.37;;;;;;;-2.27;85.63;150794.13;5011462;28;20464;-76
2023/02/27 01:28:22;;;;;;;3.00;1.90;;;;;;;-2.17;85.85;150818.47;5015293;28;20443;-77
2023/02/27 01:30:48;;;;;;;1.83;1.60;;;;;;;-2.09;86.32;150838.97;4994222;28;20456;-77
2023/02/27 01:33:16;;;;;;;3.60;1.80;;;;;;;-2.29;86.41;150787.72;5013652;28;20526;-76
2023/02/27 01:35:42;;;;;;;2.90;2.00;;;;;;;-2.43;87.37;150751.84;5010565;28;20447;-77
2023/02/27 01:38:09;;;;;;;2.53;1.77;;;;;;;-2.14;86.33;150826.13;5019866;28;20764;-76
2023/02/27 01:40:36;;;;;;;4.20;2.40;;;;;;;-2.21;86.00;150808.19;5018162;28;20934;-77
2023/02/27 01:43:03;;;;;;;2.00;1.80;;;;;;;-2.22;86.50;150806.91;5004229;28;20472;-77
2023/02/27 01:45:34;;;;;;;2.27;1.40;;;;;;;-2.18;86.49;150817.19;4992063;28;20464;-77
2023/02/27 01:48:05;;;;;;;2.50;1.77;;;;;;;-2.40;87.42;150759.53;4990533;28;20463;-77
2023/02/27 01:50:33;;;;;;;2.03;1.70;;;;;;;-2.38;88.41;150764.69;5007496;28;20915;-77
2023/02/27 01:53:02;;;;;;;3.90;2.43;;;;;;;-2.54;88.56;150724.97;5005320;28;20528;-77
2023/02/27 01:55:30;;;;;;;3.30;1.70;;;;;;;-2.40;88.55;150760.81;5012083;28;20531;-77
2023/02/27 01:57:57;;;;;;;2.03;1.43;;;;;;;-2.39;88.20;150763.41;5003691;28;20451;-76
2023/02/27 02:00:25;;;;;;;2.70;1.57;;;;;;;-2.16;87.70;150822.28;4993380;28;20543;-76
2023/02/27 02:02:58;;;;;;;6.30;2.60;;;;;;;-2.26;87.44;150796.69;5000104;28;20837;-77
2023/02/27 02:05:25;;;;;;;3.33;1.47;;;;;;;-2.36;88.18;150771.09;4998807;28;20468;-76
2023/02/27 02:07:53;;;;;;;4.10;2.10;;;;;;;-2.39;88.50;150762.09;5003657;28;20421;-76
2023/02/27 02:10:20;;;;;;;2.50;2.13;;;;;;;-2.26;87.78;150795.41;5007757;28;20506;-77
2023/02/27 02:12:47;;;;;;;1.33;1.00;;;;;;;-2.25;88.33;150799.22;5005903;28;20526;-77
2023/02/27 02:15:14;;;;;;;3.00;1.90;;;;;;;-2.20;87.79;150810.78;4985557;28;20468;-77
2023/02/27 02:17:46;;;;;;;2.17;1.67;;;;;;;-2.24;88.16;150800.50;4992084;28;20547;-76
2023/02/27 02:20:34;;;;;;;2.50;1.93;;;;;;;-2.44;88.85;150749.31;5018103;28;20460;-77
2023/02/27 02:23:41;;;;;;;3.97;2.30;;;;;;;-2.25;89.10;150797.97;5020562;28;20464;-76
2023/02/27 02:26:21;;;;;;;3.33;2.30;;;;;;;-2.05;87.43;150850.47;5010084;28;20431;-77
2023/02/27 02:29:28;;;;;;;3.87;2.47;;;;;;;-2.09;87.93;150838.97;4996796;28;20463;-77
2023/02/27 02:32:39;;;;;;;2.70;1.97;;;;;;;-2.17;89.29;150818.47;5024836;28;20498;-77
2023/02/27 02:35:47;;;;;;;2.33;1.93;;;;;;;-2.27;89.01;150792.81;4990633;28;20868;-77
2023/02/27 02:38:36;;;;;;;2.73;2.37;;;;;;;-2.19;89.18;150813.31;5016517;28;20885;-76
2023/02/27 02:41:11;;;;;;;2.20;2.00;;;;;;;-2.15;88.72;150823.59;4963727;28;20453;-76
2023/02/27 02:43:44;;;;;;;2.53;2.17;;;;;;;-2.31;89.28;150782.59;5009152;28;20482;-76
2023/02/27 02:46:14;;;;;;;3.60;2.40;;;;;;;-2.32;90.02;150780.03;5044424;28;20459;-76
2023/02/27 02:48:46;;;;;;;3.87;2.60;;;;;;;-2.34;90.13;150774.91;4988513;28;20547;-76
2023/02/27 02:51:17;;;;;;;2.83;1.97;;;;;;;-2.13;89.15;150828.69;5012156;28;20441;-76
2023/02/27 02:53:50;;;;;;;3.73;2.40;;;;;;;-2.29;89.45;150787.72;5017726;28;20554;-76
2023/02/27 02:56:21;;;;;;;4.77;2.13;;;;;;;-2.13;89.40;150830.00;5028363;28;20542;-78
2023/02/27 02:58:54;;;;;;;3.43;2.00;;;;;;;-2.09;88.42;150838.97;4979833;28;20451;-78
2023/02/27 03:01:24;;;;;;;4.00;2.70;;;;;;;-2.34;90.36;150774.91;5010460;28;20898;-77
2023/02/27 03:03:54;;;;;;;3.50;2.70;;;;;;;-2.23;90.31;150803.09;4996207;28;20431;-78
2023/02/27 03:06:23;;;;;;;2.80;2.00;;;;;;;-2.07;89.28;150844.06;4995270;28;20447;-78
2023/02/27 03:08:55;;;;;;;3.73;2.70;;;;;;;-2.39;90.39;150762.09;5006219;28;20494;-78
2023/02/27 03:11:24;;;;;;;3.07;2.43;;;;;;;-2.37;90.76;150767.22;5004945;28;20454;-79
2023/02/27 03:13:54;;;;;;;5.47;2.60;;;;;;;-2.16;90.06;150821.00;5008247;28;20571;-78
2023/02/27 03:16:24;;;;;;;1.90;1.53;;;;;;;-2.34;90.23;150774.91;5020972;28;20450;-77
2023/02/27 03:18:54;;;;;;;2.93;2.40;;;;;;;-2.31;90.49;150782.59;4989728;28;20465;-77
2023/02/27 03:21:24;;;;;;;2.60;2.30;;;;;;;-2.44;91.30;150749.31;5000133;28;20448;-78
2023/02/27 03:23:54;;;;;;;3.40;2.53;;;;;;;-2.39;91.18;150762.09;5010294;28;20528;-77
2023/02/27 03:26:24;;;;;;;4.70;2.17;;;;;;;-2.34;90.97;150776.19;4992100;28;20475;-78
2023/02/27 03:28:56;;;;;;;3.00;2.30;;;;;;;-2.29;90.84;150789.00;4990136;28;20479;-78
2023/02/27 03:31:27;;;;;;;2.93;1.90;;;;;;;-2.32;90.98;150780.03;5012326;28;20934;-77
2023/02/27 03:33:58;;;;;;;3.17;2.63;;;;;;;-2.34;91.47;150774.91;5011255;28;20575;-78
2023/02/27 03:36:31;;;;;;;4.07;2.70;;;;;;;-2.29;90.50;150789.00;4993238;28;20455;-78
2023/02/27 03:39:05;;;;;;;3.40;2.20;;;;;;;-2.37;90.96;150767.22;5019563;28;20440;-78
2023/02/27 03:41:35;;;;;;;3.67;1.90;;;;;;;-2.42;91.92;150755.72;4992516;28;20432;-77
2023/02/27 03:44:31;;;;;;;4.33;2.33;;;;;;;-2.48;91.85;150741.63;5023436;28;20436;-78
2023/02/27 03:46:58;;;;;;;3.20;2.00;;;;;;;-2.33;91.90;150777.50;5008651;28;20466;-77
2023/02/27 03:49:25;;;;;;;2.47;1.50;;;;;;;-2.37;91.28;150767.22;5028437;28;21038;-78
2023/02/27 03:51:52;;;;;;;2.53;2.33;;;;;;;-2.52;91.99;150730.13;5011288;28;20439;-78
2023/02/27 03:54:23;;;;;;;3.50;2.00;;;;;;;-2.38;91.96;150765.94;5008515;28;20555;-78
2023/02/27 03:56:52;;;;;;;3.63;2.50;;;;;;;-2.37;92.02;150767.22;4997714;28;20954;-78
2023/02/27 03:59:19;;;;;;;2.60;1.63;;;;;;;-2.27;91.00;150794.13;4996627;28;20954;-78
2023/02/27 04:01:51;;;;;;;3.27;2.00;;;;;;;-2.48;91.88;150740.34;4992499;28;20886;-78
2023/02/27 04:04:18;;;;;;;3.63;2.03;;;;;;;-2.39;92.42;150762.09;5002960;28;20456;-77
2023/02/27 04:10:21;;;;;;;4.07;2.33;;;;;;;-2.40;91.96;150759.53;4993767;28;20546;-78
2023/02/27 04:13:00;;;;;;;3.10;2.10;;;;;;;-2.47;92.26;150744.19;5022140;28;20486;-77
2023/02/27 04:15:34;;;;;;;2.63;2.23;;;;;;;-2.49;93.24;150739.03;4998701;28;20545;-78
2023/02/27 04:18:12;;;;;;;3.00;2.07;;;;;;;-2.47;92.76;150744.19;5022155;28;20977;-78
2023/02/27 04:20:43;;;;;;;6.23;2.13;;;;;;;-2.40;92.79;150759.53;5008293;28;21104;-78
2023/02/27 04:23:13;;;;;;;3.60;2.50;;;;;;;-2.51;92.16;150733.94;5017686;28;20422;-77
2023/02/27 04:25:52;;;;;;;2.07;1.60;;;;;;;-2.42;92.79;150754.41;5025586;28;20455;-78
2023/02/27 04:28:22;;;;;;;3.53;2.10;;;;;;;-2.40;92.13;150759.53;4992316;28;20822;-78
2023/02/27 04:30:59;;;;;;;6.00;2.17;;;;;;;-2.40;92.53;150759.53;5012733;28;20533;-78
2023/02/27 04:33:35;;;;;;;2.93;1.83;;;;;;;-2.47;92.83;150744.19;5014271;28;20458;-78
2023/02/27 04:36:05;;;;;;;3.20;2.40;;;;;;;-2.49;93.34;150739.03;5028036;28;20783;-78
2023/02/27 04:38:36;;;;;;;3.60;2.37;;;;;;;-2.36;92.41;150769.81;5007359;28;20450;-78
2023/02/27 04:41:08;;;;;;;3.40;2.47;;;;;;;-2.38;92.43;150764.69;5015875;28;20460;-78
2023/02/27 04:43:37;;;;;;;4.17;2.20;;;;;;;-2.46;92.15;150746.72;5008070;28;20907;-77
2023/02/27 04:46:07;;;;;;;2.90;2.40;;;;;;;-2.68;93.74;150690.44;5011245;28;20439;-78
2023/02/27 04:48:36;;;;;;;4.37;2.80;;;;;;;-2.69;93.32;150687.84;5025938;28;20802;-78
2023/02/27 04:51:06;;;;;;;3.33;2.53;;;;;;;-2.49;93.09;150739.03;5009507;28;20531;-78
2023/02/27 04:53:37;;;;;;;2.70;2.20;;;;;;;-2.39;92.43;150762.09;5001152;28;20503;-78
2023/02/27 04:56:10;;;;;;;2.93;2.60;;;;;;;-2.40;92.60;150759.53;4996371;28;20451;-78
2023/02/27 04:58:38;;;;;;;3.77;2.57;;;;;;;-2.50;92.39;150736.50;5018414;28;20494;-85
2023/02/27 05:01:08;;;;;;;2.80;2.30;;;;;;;-2.35;92.01;150772.31;4989782;28;20461;-85
2023/02/27 05:03:38;;;;;;;4.73;2.43;;;;;;;-2.51;92.70;150733.94;4993701;28;20526;-86
2023/02/27 05:06:07;;;;;;;2.80;2.37;;;;;;;-2.31;91.96;150783.88;5028617;28;20451;-85
2023/02/27 05:08:38;;;;;;;3.97;2.90;;;;;;;-2.48;92.41;150741.63;4991764;28;20545;-85
2023/02/27 05:11:09;;;;;;;3.53;2.47;;;;;;;-2.39;92.11;150763.41;5023331;28;20463;-85
2023/02/27 05:13:40;;;;;;;3.47;2.53;;;;;;;-2.50;92.01;150736.50;5021575;28;20498;-85
2023/02/27 05:16:12;;;;;;;6.17;2.73;;;;;;;-2.31;91.79;150783.88;5012089;28;20418;-85
2023/02/27 05:18:39;;;;;;;3.20;2.30;;;;;;;-2.39;91.91;150763.41;5028459;28;20454;-85
2023/02/27 05:21:12;;;;;;;5.60;2.40;;;;;;;-2.32;91.89;150780.03;4984916;28;20488;-85
2023/02/27 05:23:43;;;;;;;3.57;2.10;;;;;;;-2.32;91.48;150780.03;5008571;28;20446;-85
2023/02/27 05:26:15;;;;;;;4.63;3.13;;;;;;;-2.33;92.18;150777.50;4993400;28;20447;-85
2023/02/27 05:28:49;;;;;;;4.70;2.93;;;;;;;-2.44;91.97;150749.31;5028625;28;20439;-85
2023/02/27 05:31:19;;;;;;;2.50;1.67;;;;;;;-2.50;92.58;150736.50;5018977;28;20525;-85
2023/02/27 05:33:48;;;;;;;2.97;2.20;;;;;;;-2.54;92.48;150726.25;5014512;28;20431;-85
2023/02/27 05:36:17;;;;;;;5.07;3.37;;;;;;;-2.56;92.86;150721.13;4998671;28;20426;-85
2023/02/27 05:38:47;;;;;;;3.80;2.03;;;;;;;-2.56;92.20;150721.13;4992592;28;20543;-85
2023/02/27 05:41:21;;;;;;;3.30;2.10;;;;;;;-2.60;92.49;150710.91;4994382;28;20469;-85
2023/02/27 05:43:51;;;;;;;4.33;2.63;;;;;;;-2.55;92.01;150723.72;4997766;28;20558;-85
2023/02/27 05:46:21;;;;;;;4.57;2.43;;;;;;;-2.54;92.54;150726.25;4994365;28;20421;-86
2023/02/27 05:48:52;;;;;;;3.00;2.43;;;;;;;-2.56;92.19;150721.13;5028332;28;20444;-85
2023/02/27 05:51:19;;;;;;;3.67;2.23;;;;;;;-2.57;92.50;150718.56;5024737;28;20456;-85
2023/02/27 05:53:50;;;;;;;4.80;3.27;;;;;;;-2.65;92.78;150696.84;5000353;28;20483;-85
2023/02/27 05:56:22;;;;;;;3.00;2.33;;;;;;;-2.60;92.26;150710.91;5015638;28;20439;-85
2023/02/27 05:58:52;;;;;;;4.07;3.10;;;;;;;-2.61;92.64;150707.06;5015358;28;20469;-85
2023/02/27 06:01:19;;;;;;;4.80;3.07;;;;;;;-2.69;93.16;150686.56;5022367;28;20435;-85
2023/02/27 06:03:45;;;;;;;3.20;2.47;;;;;;;-2.62;92.73;150705.75;5012410;28;20459;-85
2023/02/27 06:06:14;;;;;;;3.40;3.07;;;;;;;-2.72;93.33;150678.88;5014352;28;20455;-85
2023/02/27 06:08:41;;;;;;;4.00;3.17;;;;;;;-2.64;92.36;150700.66;4995125;28;20462;-85
2023/02/27 06:11:08;;;;;;;4.30;2.80;;;;;;;-2.83;93.83;150652.00;5005483;28;20501;-84
2023/02/27 06:13:36;;;;;;;4.10;3.00;;;;;;;-2.69;92.52;150687.84;4987813;28;20452;-84
2023/02/27 06:16:03;;;;;;;3.60;2.73;;;;;;;-2.65;92.44;150698.06;4994755;28;20474;-83
2023/02/27 06:18:29;;;;;;;2.87;2.57;;;;;;;-2.70;93.09;150685.28;5018822;28;20581;-84
2023/02/27 06:20:56;;;;;;;2.37;2.10;;;;;;;-2.70;92.75;150684.03;4989509;28;20830;-85
2023/02/27 06:23:23;;;;;;;4.73;3.50;;;;;;;-2.66;92.79;150694.25;5010136;28;20460;-84
2023/02/27 06:25:50;;;;;;;6.27;3.40;;;;;;;-2.75;93.04;150671.19;5029735;28;20502;-84
2023/02/27 06:28:17;;;;;;;3.97;2.97;;;;;;;-2.77;94.02;150667.38;5003871;28;20876;-85
2023/02/27 06:30:45;;;;;;;3.33;2.63;;;;;;;-2.64;93.07;150699.38;4995443;28;20458;-85
2023/02/27 06:33:11;;;;;;;4.97;3.30;;;;;;;-2.70;92.84;150684.03;4996367;28;20462;-84
2023/02/27 06:35:38;;;;;;;3.70;3.33;;;;;;;-2.81;93.91;150655.88;5022757;28;20805;-84
2023/02/27 06:38:05;;;;;;;5.13;3.37;;;;;;;-2.74;93.53;150675.06;4994404;28;20431;-84
2023/02/27 06:40:32;;;;;;;4.30;3.43;;;;;;;-2.72;93.31;150678.88;5024715;28;20547;-85
2023/02/27 06:42:59;;;;;;;6.17;3.13;;;;;;;-2.61;93.43;150708.34;5003512;28;20457;-85
2023/02/27 06:45:25;;;;;;;4.93;3.20;;;;;;;-2.57;93.02;150717.31;5022171;28;20513;-85
2023/02/27 06:47:53;;;;;;;3.33;2.10;;;;;;;-2.54;93.03;150726.25;4990154;28;20537;-85
2023/02/27 06:50:20;;;;;;;3.77;2.40;;;;;;;-2.34;92.62;150774.91;4993832;28;20459;-85
2023/02/27 06:52:47;;;;;;;4.67;3.07;;;;;;;-2.36;92.27;150771.09;5011403;28;20481;-85
2023/02/27 06:55:18;;;;;;;3.70;2.20;;;;;;;-2.17;91.49;150818.47;4991674;28;20538;-85
2023/02/27 06:57:46;;;;;;;3.63;2.87;;;;;;;-2.10;90.90;150836.38;5027113;28;20551;-85
2023/02/27 07:00:14;;;;;;;3.30;2.53;;;;;;;-1.83;90.43;150906.81;5006292;28;20462;-85
2023/02/27 07:02:40;;;;;;;3.73;2.93;;;;;;;-1.83;89.68;150905.56;5004637;28;20460;-86
2023/02/27 07:05:10;;;;;;;3.20;2.90;;;;;;;-1.66;88.25;150947.81;5006207;28;20460;-86
2023/02/27 07:07:37;;;;;;;5.10;3.00;;;;;;;-1.62;88.42;150959.38;5000637;28;20447;-86
2023/02/27 07:10:05;;;;;;;5.40;3.23;;;;;;;-1.55;88.31;150977.28;4991012;28;20536;-86
2023/02/27 07:12:32;;;;;;;4.63;2.87;;;;;;;-1.41;87.44;151011.91;5021253;28;20734;-86
2023/02/27 07:14:58;;;;;;;4.27;2.70;;;;;;;-1.26;85.92;151050.34;5007377;28;20476;-86
2023/02/27 07:17:25;;;;;;;4.67;3.13;;;;;;;-1.22;85.84;151061.88;5009183;28;20461;-86
2023/02/27 07:19:52;;;;;;;5.73;2.83;;;;;;;-1.10;85.72;151091.38;4996331;28;20467;-86
2023/02/27 07:22:20;;;;;;;5.73;3.13;;;;;;;-0.78;84.23;151173.44;5008220;28;20822;-86
2023/02/27 07:24:47;;;;;;;4.17;2.90;;;;;;;-0.81;83.17;151165.72;5023304;28;20456;-86
2023/02/27 07:27:13;;;;;;;4.00;3.20;;;;;;;-0.69;83.17;151196.47;5007146;28;20453;-86
2023/02/27 07:29:41;;;;;;;4.87;3.00;;;;;;;-0.84;81.85;151158.03;5028388;28;20465;-86
2023/02/27 07:32:07;;;;;;;4.63;2.80;;;;;;;-0.75;82.03;151179.84;5027307;28;20505;-87
2023/02/27 07:34:34;;;;;;;6.10;3.53;;;;;;;-0.52;80.64;151238.81;4994715;28;20577;-86
2023/02/27 07:37:01;;;;;;;7.07;3.07;;;;;;;-0.36;80.75;151279.88;5006056;28;20460;-86
2023/02/27 07:39:29;;;;;;;4.67;2.63;;;;;;;-0.08;79.53;151350.44;4988898;28;20500;-86
2023/02/27 07:41:56;;;;;;;3.40;2.67;;;;;;;0.03;78.45;151378.63;5025700;28;20448;-86
2023/02/27 07:44:22;;;;;;;4.50;2.70;;;;;;;0.06;77.95;151386.34;4989072;28;20454;-87
2023/02/27 07:46:50;;;;;;;3.20;2.43;;;;;;;0.27;77.38;151438.97;5005079;28;20449;-87
2023/02/27 07:49:17;;;;;;;4.53;2.87;;;;;;;0.54;76.11;151508.28;5006550;28;20908;-87
2023/02/27 07:51:44;;;;;;;6.30;3.43;;;;;;;0.34;76.47;151456.97;4994737;28;20473;-87
2023/02/27 07:54:11;;;;;;;5.00;3.47;;;;;;;0.84;74.75;151585.34;5022134;28;20454;-86
2023/02/27 07:56:39;;;;;;;5.43;3.50;;;;;;;1.00;74.17;151626.44;5014543;28;20469;-88
2023/02/27 07:59:06;;;;;;;6.00;2.90;;;;;;;1.06;72.81;151641.81;5027160;28;20459;-87
2023/02/27 08:01:33;;;;;;;3.90;2.80;;;;;;;1.35;71.65;151715.03;5012269;28;20451;-87
2023/02/27 08:03:59;;;;;;;6.20;2.70;;;;;;;1.20;71.80;151677.81;5024964;28;20489;-87
2023/02/27 08:06:26;;;;;;;3.10;2.17;;;;;;;1.19;71.26;151675.22;5011165;28;20478;-86
2023/02/27 08:08:53;;;;;;;3.27;2.80;;;;;;;0.97;72.20;151617.44;5008007;28;20454;-87
2023/02/27 08:11:19;;;;;;;3.57;2.80;;;;;;;0.86;72.59;151590.47;5024467;28;20449;-86
2023/02/27 08:13:48;;;;;;;3.83;3.00;;;;;;;1.05;72.96;151638.00;5003026;28;20442;-86
2023/02/27 08:16:15;;;;;;;4.27;3.50;;;;;;;1.11;72.04;151654.66;5025274;28;20524;-86
2023/02/27 08:18:43;;;;;;;3.83;2.60;;;;;;;0.66;72.61;151537.84;5004241;28;20536;-86
2023/02/27 08:21:09;;;;;;;4.57;2.90;;;;;;;0.74;73.70;151558.38;4996167;28;20476;-85
2023/02/27 08:23:36;;;;;;;4.90;2.87;;;;;;;0.60;74.92;151525.00;4994897;28;20438;-86
2023/02/27 08:26:03;;;;;;;5.10;3.07;;;;;;;0.55;73.83;151512.16;4991116;28;20457;-86
2023/02/27 08:28:30;;;;;;;4.93;2.57;;;;;;;0.05;74.48;151382.50;4999464;28;20478;-86
2023/02/27 08:30:58;;;;;;;4.03;2.80;;;;;;;-0.13;75.65;151338.88;4990518;28;20549;-86
2023/02/27 08:33:25;;;;;;;3.33;2.50;;;;;;;0.09;75.56;151394.06;5016290;28;20458;-86
2023/02/27 08:35:53;;;;;;;2.13;1.33;;;;;;;0.03;74.47;151378.63;5023537;28;20471;-85
2023/02/27 08:38:20;;;;;;;3.87;3.10;;;;;;;0.11;74.91;151399.16;5009087;28;20468;-85
2023/02/27 08:40:46;;;;;;;2.97;2.50;;;;;;;0.16;74.82;151412.00;5005417;28;20524;-85
2023/02/27 08:43:13;;;;;;;2.87;2.60;;;;;;;0.20;75.04;151422.28;5020368;28;20465;-86
2023/02/27 08:45:41;;;;;;;5.20;3.17;;;;;;;0.27;74.39;151438.97;4993451;28;20883;-87
2023/02/27 08:48:12;;;;;;;3.17;2.20;;;;;;;0.38;74.65;151468.50;5010436;28;20885;-86
2023/02/27 08:50:39;;;;;;;4.53;2.90;;;;;;;0.40;74.09;151472.31;4985355;28;20454;-86
2023/02/27 08:53:06;;;;;;;4.43;2.83;;;;;;;0.50;73.71;151498.03;4993652;28;20450;-86
2023/02/27 08:55:33;;;;;;;4.13;3.13;;;;;;;0.49;73.15;151496.75;4986435;28;20482;-86
2023/02/27 08:58:00;;;;;;;3.83;2.90;;;;;;;0.31;73.15;151449.25;5025348;28;20460;-86
2023/02/27 09:00:27;;;;;;;2.60;2.10;;;;;;;0.28;72.19;151442.84;4992061;28;20548;-86
2023/02/27 09:02:54;;;;;;;4.73;3.00;;;;;;;0.35;73.11;151460.78;5018679;28;20457;-87
2023/02/27 09:05:22;;;;;;;4.07;2.63;;;;;;;0.53;73.42;151505.75;5026851;28;20463;-86
2023/02/27 09:07:49;;;;;;;4.67;3.03;;;;;;;0.64;71.78;151532.72;5009295;28;20445;-86
2023/02/27 09:10:16;;;;;;;3.70;2.70;;;;;;;0.56;71.57;151514.69;5021408;28;20936;-85
2023/02/27 09:12:43;;;;;;;3.60;2.40;;;;;;;0.45;72.18;151486.44;5000083;28;20458;-85
2023/02/27 09:15:11;;;;;;;2.90;2.47;;;;;;;0.37;70.90;151464.66;5024539;28;20489;-86
2023/02/27 09:17:38;;;;;;;4.40;2.40;;;;;;;0.34;69.98;151456.97;5005114;28;20450;-85
2023/02/27 09:20:08;;;;;;;2.20;1.60;;;;;;;0.22;70.01;151426.13;5007817;28;20466;-86
2023/02/27 09:22:36;;;;;;;3.17;2.87;;;;;;;0.24;70.45;151431.28;5023196;28;20461;-86
2023/02/27 09:25:03;;;;;;;5.27;3.13;;;;;;;0.54;70.44;151508.28;5007650;28;20489;-86
2023/02/27 09:27:29;;;;;;;3.40;2.50;;;;;;;0.63;69.95;151530.13;4993872;28;20452;-87
2023/02/27 09:29:56;;;;;;;4.30;2.33;;;;;;;0.57;68.28;151516.00;4992518;28;20547;-86
2023/02/27 09:32:23;;;;;;;3.00;2.53;;;;;;;0.63;68.31;151530.13;5018688;28;20489;-86
2023/02/27 09:34:50;;;;;;;2.60;2.33;;;;;;;0.59;68.44;151521.13;5007710;28;20478;-86
2023/02/27 09:37:18;;;;;;;4.40;2.60;;;;;;;0.67;67.24;151541.66;5014108;28;20454;-85
2023/02/27 09:39:46;;;;;;;2.87;2.23;;;;;;;0.64;66.73;151533.94;4991791;28;20461;-85
2023/02/27 09:42:16;;;;;;;3.53;2.80;;;;;;;0.52;66.00;151504.47;5014818;28;20513;-86
2023/02/27 09:44:45;;;;;;;2.60;1.80;;;;;;;0.71;66.43;151550.66;5022122;28;20485;-86
2023/02/27 09:47:16;;;;;;;3.00;2.53;;;;;;;0.86;66.07;151590.47;5003030;28;20497;-86
2023/02/27 09:49:52;;;;;;;6.67;2.63;;;;;;;1.07;65.88;151644.41;5029816;28;20529;-86
2023/02/27 09:52:18;;;;;;;3.03;2.20;;;;;;;0.85;63.78;151587.88;5005798;28;20867;-86
2023/02/27 09:54:47;;;;;;;2.20;1.73;;;;;;;0.89;63.60;151598.19;5029657;28;20524;-86
2023/02/27 09:57:16;;;;;;;1.80;1.70;;;;;;;0.97;63.95;151618.72;4993281;28;20478;-86
2023/02/27 09:59:46;;;;;;;3.10;1.90;;;;;;;0.95;63.25;151613.59;5019958;28;20471;-85
2023/02/27 10:02:22;;;;;;;4.33;2.67;;;;;;;0.89;63.32;151598.19;5029862;28;20536;-86
2023/02/27 10:04:52;;;;;;;7.83;1.30;;;;;;;0.95;62.07;151613.59;5011171;28;20454;-85
2023/02/27 10:07:24;;;;;;;4.00;2.07;;;;;;;0.97;62.17;151618.72;5007467;28;20441;-85
2023/02/27 10:10:00;;;;;;;2.20;2.00;;;;;;;1.00;62.02;151626.44;5029368;28;20453;-86
2023/02/27 10:12:39;;;;;;;1.87;1.20;;;;;;;1.00;61.91;151626.44;5012356;28;20853;-85
2023/02/27 10:15:13;;;;;;;2.17;1.70;;;;;;;1.11;61.91;151654.66;5009935;28;20456;-86
2023/02/27 10:17:47;;;;;;;2.50;2.30;;;;;;;1.06;62.84;151640.56;5001786;28;20449;-85
2023/02/27 10:20:20;;;;;;;2.70;1.87;;;;;;;1.12;62.15;151657.25;5019281;28;20546;-85
2023/02/27 10:22:47;;;;;;;2.83;2.30;;;;;;;1.19;62.64;151673.97;5027190;28;20537;-85
2023/02/27 10:25:17;;;;;;;1.97;1.60;;;;;;;1.26;61.79;151691.94;5011384;28;20457;-85
2023/02/27 10:27:46;;;;;;;2.63;1.70;;;;;;;1.36;61.00;151716.31;5024347;28;20485;-84
2023/02/27 10:30:20;;;;;;;2.23;1.60;;;;;;;1.37;59.16;151718.91;5006365;28;20971;-85
2023/02/27 10:32:48;;;;;;;2.77;2.00;;;;;;;1.39;58.33;151724.03;5026299;28;20457;-85
2023/02/27 10:35:30;;;;;;;2.50;1.73;;;;;;;1.45;59.37;151739.47;5023526;28;20481;-85
2023/02/27 10:38:00;;;;;;;2.90;1.30;;;;;;;1.43;58.27;151734.34;5015005;28;20842;-84
2023/02/27 10:40:29;;;;;;;2.90;1.23;;;;;;;1.38;57.41;151721.50;5026073;28;21360;-85
2023/02/27 10:42:58;;;;;;;2.27;1.73;;;;;;;1.27;57.68;151694.53;4989019;28;20578;-85
2023/02/27 10:45:24;;;;;;;2.30;1.50;;;;;;;1.44;58.66;151736.88;5024566;28;20455;-85
2023/02/27 10:47:51;;;;;;;2.80;2.17;;;;;;;1.29;57.33;151698.38;4995925;28;20451;-85
2023/02/27 10:50:25;;;;;;;2.67;2.10;;;;;;;1.28;57.53;151695.78;5023390;28;20446;-86
2023/02/27 10:52:53;;;;;;;2.20;2.00;;;;;;;1.40;57.55;151726.63;5013179;28;20476;-85
2023/02/27 10:55:25;;;;;;;3.30;1.87;;;;;;;1.50;58.52;151753.63;4994612;28;20470;-85
2023/02/27 10:57:55;;;;;;;2.50;2.00;;;;;;;1.47;57.38;151744.59;5027650;28;20893;-85
2023/02/27 11:00:32;;;;;;;6.83;1.60;;;;;;;1.36;57.13;151716.31;5010795;28;20461;-85
2023/02/27 11:02:59;;;;;;;1.87;1.27;;;;;;;1.30;57.18;151702.19;4992205;28;20537;-84
2023/02/27 11:05:27;;;;;;;4.37;2.57;;;;;;;1.17;56.72;151670.09;4992151;28;22201;-86
2023/02/27 11:07:55;;;;;;;2.40;1.67;;;;;;;1.23;56.53;151685.53;5029205;28;20795;-85
2023/02/27 11:10:23;;;;;;;5.50;2.07;;;;;;;1.37;57.38;151718.91;5027140;28;20567;-85
2023/02/27 11:13:01;;;;;;;2.60;1.70;;;;;;;1.32;57.29;151706.06;5011627;28;20808;-85
2023/02/27 11:15:29;;;;;;;2.57;2.00;;;;;;;1.16;57.70;151667.56;5012448;28;20541;-86
2023/02/27 11:18:22;;;;;;;2.13;1.77;;;;;;;1.14;56.48;151661.09;4995190;28;20458;-86
2023/02/27 11:20:49;;;;;;;3.07;2.33;;;;;;;1.35;57.07;151713.78;5007581;28;20525;-86
2023/02/27 11:23:18;;;;;;;4.10;1.67;;;;;;;1.38;57.30;151722.75;5027184;28;20461;-86
2023/02/27 11:25:45;;;;;;;3.67;1.90;;;;;;;1.47;56.63;151744.59;4994934;28;21092;-85
2023/02/27 11:28:23;;;;;;;2.33;1.90;;;;;;;1.46;56.42;151742.00;5001537;28;20450;-86
2023/02/27 11:30:58;;;;;;;1.90;1.30;;;;;;;1.48;57.45;151747.19;5027083;28;20488;-85
2023/02/27 11:33:26;;;;;;;2.60;2.03;;;;;;;1.34;57.17;151712.50;5025132;28;20476;-85
2023/02/27 11:35:54;;;;;;;3.20;1.90;;;;;;;1.33;57.84;151708.63;5027639;28;20889;-86
2023/02/27 11:38:23;;;;;;;2.37;1.83;;;;;;;1.52;56.91;151758.75;5021659;28;20464;-85
2023/02/27 11:40:53;;;;;;;2.70;2.20;;;;;;;1.53;57.27;151760.03;5011783;28;20520;-86
2023/02/27 11:43:22;;;;;;;3.30;2.13;;;;;;;1.64;56.89;151789.56;5010609;28;20486;-86